createdAt,value
2023-07-18T00:02:00.090Z,5.00
2023-07-18T00:04:29.068Z,4.70
2023-07-18T00:06:56.073Z,5.00
2023-07-18T00:09:23.594Z,5.60
2023-07-18T00:11:50.435Z,5.40
2023-07-18T00:14:18.279Z,4.80
2023-07-18T00:16:48.200Z,5.20
2023-07-18T00:19:15.519Z,5.00
2023-07-18T00:21:42.511Z,5.40
2023-07-18T00:24:09.156Z,5.60
2023-07-18T00:26:35.978Z,5.20
2023-07-18T00:29:02.830Z,5.20
2023-07-18T00:31:29.687Z,5.50
2023-07-18T00:33:56.509Z,5.70
2023-07-18T00:36:23.349Z,5.50
2023-07-18T00:38:50.584Z,5.40
2023-07-18T00:41:17.638Z,5.00
2023-07-18T00:43:44.913Z,4.90
2023-07-18T00:46:13.280Z,5.10
2023-07-18T00:48:40.371Z,5.10
2023-07-18T00:51:08.909Z,5.50
2023-07-18T00:53:37.194Z,5.30
2023-07-18T00:56:04.450Z,5.10
2023-07-18T00:58:32.311Z,5.10
2023-07-18T01:01:00.683Z,4.90
2023-07-18T01:03:28.251Z,5.00
2023-07-18T01:05:55.495Z,5.10
2023-07-18T01:08:22.344Z,5.10
2023-07-18T01:10:49.176Z,5.00
2023-07-18T01:13:16.435Z,4.70
2023-07-18T01:15:44.729Z,5.00
2023-07-18T01:18:11.959Z,4.80
2023-07-18T01:20:39.070Z,5.40
2023-07-18T01:23:06.190Z,4.90
2023-07-18T01:25:35.065Z,5.20
2023-07-18T01:28:02.479Z,4.70
2023-07-18T01:30:30.270Z,4.60
2023-07-18T01:32:57.969Z,5.00
2023-07-18T01:35:26.643Z,4.80
2023-07-18T01:37:54.492Z,5.10
2023-07-18T01:40:21.957Z,4.80
2023-07-18T01:42:52.642Z,5.00
2023-07-18T01:45:25.273Z,5.20
2023-07-18T01:47:53.404Z,4.70
2023-07-18T01:50:20.738Z,5.10
2023-07-18T01:52:50.805Z,5.50
2023-07-18T01:55:21.457Z,5.10
2023-07-18T01:57:49.734Z,5.50
2023-07-18T02:00:21.695Z,5.60
2023-07-18T02:02:50.756Z,5.50
2023-07-18T02:05:19.250Z,5.00
2023-07-18T02:07:46.500Z,5.30
2023-07-18T02:10:14.960Z,4.80
2023-07-18T02:12:42.442Z,5.10
2023-07-18T02:15:09.895Z,5.40
2023-07-18T02:17:36.778Z,6.20
2023-07-18T02:20:07.909Z,6.00
2023-07-18T02:22:35.369Z,6.00
2023-07-18T02:25:03.620Z,5.50
2023-07-18T02:27:36.603Z,4.90
2023-07-18T02:30:03.860Z,5.10
2023-07-18T02:32:31.323Z,4.90
2023-07-18T02:34:59.176Z,4.80
2023-07-18T02:37:26.837Z,4.90
2023-07-18T02:39:53.887Z,4.90
2023-07-18T02:42:20.730Z,5.40
2023-07-18T02:44:48.595Z,5.10
2023-07-18T02:47:16.471Z,5.30
2023-07-18T02:49:43.307Z,5.60
2023-07-18T02:52:10.349Z,5.30
2023-07-18T02:54:37.207Z,5.10
2023-07-18T02:57:04.314Z,5.30
2023-07-18T02:59:31.288Z,5.20
2023-07-18T03:01:58.805Z,5.30
2023-07-18T03:04:28.257Z,5.40
2023-07-18T03:06:55.105Z,5.40
2023-07-18T03:09:23.164Z,4.70
2023-07-18T03:11:53.489Z,5.30
2023-07-18T03:14:20.944Z,4.60
2023-07-18T03:16:49.088Z,5.30
2023-07-18T03:19:16.683Z,4.80
2023-07-18T03:21:45.157Z,4.60
2023-07-18T03:24:11.998Z,5.20
2023-07-18T03:26:39.676Z,5.20
2023-07-18T03:29:07.691Z,4.80
2023-07-18T03:31:35.260Z,5.60
2023-07-18T03:34:06.411Z,5.30
2023-07-18T03:36:33.374Z,5.40
2023-07-18T03:39:00.228Z,5.10
2023-07-18T03:41:27.280Z,5.10
2023-07-18T03:43:54.945Z,4.90
2023-07-18T03:46:23.203Z,5.50
2023-07-18T03:48:50.310Z,5.10
2023-07-18T03:51:18.015Z,5.20
2023-07-18T03:53:45.374Z,4.90
2023-07-18T03:56:13.508Z,4.90
2023-07-18T03:58:40.699Z,4.80
2023-07-18T04:01:09.607Z,5.20
2023-07-18T04:03:37.112Z,4.90
2023-07-18T04:06:04.101Z,5.30
2023-07-18T04:08:30.938Z,5.40
2023-07-18T04:10:59.672Z,5.50
2023-07-18T04:13:26.880Z,5.10
2023-07-18T04:15:56.619Z,4.90
2023-07-18T04:18:23.857Z,4.80
2023-07-18T04:20:51.102Z,4.70
2023-07-18T04:23:19.997Z,4.80
2023-07-18T04:25:57.682Z,5.10
2023-07-18T04:28:25.139Z,5.00
2023-07-18T04:30:51.995Z,4.80
2023-07-18T04:33:18.831Z,4.90
2023-07-18T04:35:47.315Z,5.20
2023-07-18T04:38:15.375Z,5.20
2023-07-18T04:40:42.651Z,5.10
2023-07-18T04:43:09.882Z,4.80
2023-07-18T04:45:43.311Z,4.60
2023-07-18T04:48:11.802Z,5.70
2023-07-18T04:50:39.011Z,6.00
2023-07-18T04:53:05.855Z,6.40
2023-07-18T04:55:32.698Z,5.60
2023-07-18T04:57:59.537Z,5.70
2023-07-18T05:00:26.383Z,5.60
2023-07-18T05:02:53.253Z,5.10
2023-07-18T05:05:21.231Z,5.50
2023-07-18T05:07:48.758Z,4.80
2023-07-18T05:10:15.626Z,5.20
2023-07-18T05:12:42.435Z,5.40
2023-07-18T05:15:09.692Z,5.00
2023-07-18T05:17:36.601Z,4.70
2023-07-18T05:20:06.049Z,4.80
2023-07-18T05:22:33.127Z,5.20
2023-07-18T05:25:00.773Z,4.70
2023-07-18T05:27:27.584Z,4.60
2023-07-18T05:29:55.657Z,4.70
2023-07-18T05:32:22.916Z,4.70
2023-07-18T05:34:51.396Z,4.70
2023-07-18T05:37:18.448Z,4.50
2023-07-18T05:39:45.280Z,4.30
2023-07-18T05:42:12.126Z,4.70
2023-07-18T05:44:38.973Z,4.40
2023-07-18T05:47:06.434Z,5.00
2023-07-18T05:49:33.267Z,4.30
2023-07-18T05:52:00.035Z,4.80
2023-07-18T05:54:27.174Z,4.20
2023-07-18T05:56:54.004Z,4.20
2023-07-18T05:59:21.255Z,4.00
2023-07-18T06:01:48.403Z,4.10
2023-07-18T06:04:17.426Z,4.40
2023-07-18T06:06:47.519Z,4.10
2023-07-18T06:09:14.565Z,4.20
2023-07-18T06:11:41.811Z,4.00
2023-07-18T06:14:08.659Z,4.40
2023-07-18T06:16:35.518Z,4.30
2023-07-18T06:19:02.547Z,4.20
2023-07-18T06:21:29.390Z,4.30
2023-07-18T06:24:01.626Z,4.40
2023-07-18T06:26:36.183Z,4.00
2023-07-18T06:29:03.233Z,3.50
2023-07-18T06:31:30.109Z,4.10
2023-07-18T06:33:56.918Z,4.90
2023-07-18T06:36:25.656Z,4.10
2023-07-18T06:38:52.655Z,4.00
2023-07-18T06:41:19.962Z,4.40
2023-07-18T06:43:47.582Z,4.70
2023-07-18T06:46:15.654Z,4.40
2023-07-18T06:48:42.682Z,4.60
2023-07-18T06:51:09.412Z,4.30
2023-07-18T06:53:36.053Z,4.50
2023-07-18T06:56:02.805Z,4.60
2023-07-18T06:58:29.643Z,4.20
2023-07-18T07:00:56.583Z,4.40
2023-07-18T07:03:23.616Z,4.10
2023-07-18T07:05:51.406Z,4.30
2023-07-18T07:08:20.462Z,4.50
2023-07-18T07:10:47.751Z,4.80
2023-07-18T07:13:14.428Z,4.50
2023-07-18T07:15:41.805Z,4.70
2023-07-18T07:18:08.747Z,4.40
2023-07-18T07:20:35.741Z,4.50
2023-07-18T07:23:03.317Z,4.50
2023-07-18T07:25:30.851Z,4.50
2023-07-18T07:27:57.901Z,4.50
2023-07-18T07:30:25.016Z,4.60
2023-07-18T07:32:55.537Z,4.40
2023-07-18T07:35:23.956Z,4.60
2023-07-18T07:37:51.957Z,5.90
2023-07-18T07:40:19.488Z,4.10
2023-07-18T07:42:47.353Z,4.60
2023-07-18T07:45:15.217Z,5.10
2023-07-18T07:47:42.138Z,4.30
2023-07-18T07:50:09.278Z,4.20
2023-07-18T07:52:36.277Z,4.20
2023-07-18T07:55:03.000Z,4.50
2023-07-18T07:57:30.806Z,4.00
2023-07-18T08:00:00.203Z,4.40
2023-07-18T08:02:27.094Z,4.90
2023-07-18T08:04:54.288Z,4.60
2023-07-18T08:07:21.922Z,4.30
2023-07-18T08:09:48.763Z,4.10
2023-07-18T08:12:16.220Z,5.20
2023-07-18T08:14:43.884Z,4.30
2023-07-18T08:17:10.731Z,4.40
2023-07-18T08:19:37.400Z,3.90
2023-07-18T08:22:04.706Z,3.70
2023-07-18T08:24:32.214Z,3.90
2023-07-18T08:26:59.127Z,4.10
2023-07-18T08:29:28.154Z,3.90
2023-07-18T08:31:58.363Z,3.90
2023-07-18T08:34:25.791Z,4.40
2023-07-18T08:36:52.853Z,4.60
2023-07-18T08:39:20.306Z,4.20
2023-07-18T08:41:48.164Z,4.00
2023-07-18T08:44:15.627Z,4.30
2023-07-18T08:46:48.637Z,4.20
2023-07-18T08:49:17.709Z,3.60
2023-07-18T08:51:44.751Z,3.60
2023-07-18T08:54:12.209Z,4.40
2023-07-18T08:56:41.689Z,3.90
2023-07-18T08:59:08.562Z,4.10
2023-07-18T09:01:35.438Z,3.90
2023-07-18T09:04:02.708Z,3.60
2023-07-18T09:06:29.716Z,4.20
2023-07-18T09:08:56.755Z,3.90
2023-07-18T09:11:24.169Z,4.30
2023-07-18T09:13:51.462Z,3.60
2023-07-18T09:16:21.711Z,4.20
2023-07-18T09:18:50.670Z,4.20
2023-07-18T09:21:19.047Z,4.60
2023-07-18T09:23:46.832Z,4.70
2023-07-18T09:26:20.627Z,4.20
2023-07-18T09:28:48.283Z,4.30
2023-07-18T09:31:22.559Z,4.10
2023-07-18T09:33:50.638Z,4.40
2023-07-18T09:36:18.249Z,4.20
2023-07-18T09:38:45.909Z,4.20
2023-07-18T09:43:43.058Z,4.00
2023-07-18T09:46:12.216Z,3.90
2023-07-18T09:48:45.253Z,4.40
2023-07-18T09:51:17.282Z,4.50
2023-07-18T09:53:45.789Z,3.70
2023-07-18T09:56:15.707Z,4.20
2023-07-18T09:58:43.778Z,3.90
2023-07-18T10:01:13.536Z,4.00
2023-07-18T10:03:41.132Z,4.30
2023-07-18T10:06:10.636Z,4.70
2023-07-18T10:08:42.345Z,3.90
2023-07-18T10:11:09.487Z,4.60
2023-07-18T10:13:43.484Z,4.60
2023-07-18T10:16:13.460Z,4.20
2023-07-18T10:18:47.196Z,4.00
2023-07-18T10:21:15.060Z,4.10
2023-07-18T10:23:43.557Z,4.10
2023-07-18T10:26:11.089Z,4.30
2023-07-18T10:28:45.421Z,3.80
2023-07-18T10:31:28.950Z,4.30
2023-07-18T10:34:05.928Z,3.70
2023-07-18T10:36:32.856Z,4.00
2023-07-18T10:39:00.229Z,4.10
2023-07-18T10:41:27.070Z,4.20
2023-07-18T10:43:53.918Z,4.50
2023-07-18T10:46:21.712Z,4.00
2023-07-18T10:48:51.491Z,4.00
2023-07-18T10:51:18.734Z,4.00
2023-07-18T10:53:52.958Z,3.60
2023-07-18T10:56:20.607Z,4.20
2023-07-18T10:58:48.676Z,3.60
2023-07-18T11:01:18.499Z,4.10
2023-07-18T11:03:48.605Z,4.00
2023-07-18T11:06:16.594Z,4.00
2023-07-18T11:08:46.914Z,3.90
2023-07-18T11:11:15.777Z,3.90
2023-07-18T11:13:45.315Z,3.90
2023-07-18T11:16:13.432Z,4.20
2023-07-18T11:18:42.821Z,3.70
2023-07-18T11:21:10.161Z,4.00
2023-07-18T11:23:37.654Z,4.10
2023-07-18T11:26:13.943Z,3.90
2023-07-18T11:28:42.348Z,4.10
2023-07-18T11:31:40.148Z,3.90
2023-07-18T11:34:07.776Z,3.30
2023-07-18T11:36:37.225Z,3.70
2023-07-18T11:39:08.222Z,3.90
2023-07-18T11:41:42.011Z,3.80
2023-07-18T11:44:10.306Z,3.90
2023-07-18T11:46:38.167Z,3.90
2023-07-18T11:49:05.653Z,3.70
2023-07-18T11:51:35.272Z,4.30
2023-07-18T11:54:02.831Z,4.30
2023-07-18T11:56:30.455Z,3.90
2023-07-18T11:58:57.501Z,3.80
2023-07-18T12:01:24.367Z,4.20
2023-07-18T12:03:52.932Z,4.00
2023-07-18T12:06:20.576Z,4.30
2023-07-18T12:08:48.148Z,3.70
2023-07-18T12:11:15.196Z,4.10
2023-07-18T12:13:42.256Z,3.80
2023-07-18T12:16:09.221Z,3.80
2023-07-18T12:18:36.544Z,3.80
2023-07-18T12:21:03.397Z,4.20
2023-07-18T12:23:30.259Z,3.90
2023-07-18T12:25:57.086Z,3.80
2023-07-18T12:28:23.916Z,4.40
2023-07-18T12:30:51.199Z,3.60
2023-07-18T12:33:18.247Z,4.10
2023-07-18T12:35:45.468Z,4.20
2023-07-18T12:38:12.326Z,4.00
2023-07-18T12:40:41.000Z,4.20
2023-07-18T12:43:08.448Z,3.80
2023-07-18T12:45:35.705Z,4.00
2023-07-18T12:48:02.592Z,3.40
2023-07-18T12:50:31.436Z,3.80
2023-07-18T12:53:00.131Z,4.20
2023-07-18T12:55:28.194Z,4.00
2023-07-18T12:57:55.037Z,3.90
2023-07-18T13:00:22.085Z,4.30
2023-07-18T13:02:49.285Z,4.10
2023-07-18T13:05:16.381Z,4.30
2023-07-18T13:07:43.229Z,4.30
2023-07-18T13:10:12.111Z,4.80
2023-07-18T13:12:41.415Z,4.30
2023-07-18T13:15:09.090Z,4.20
2023-07-18T13:17:36.190Z,4.30
2023-07-18T13:20:03.388Z,4.60
2023-07-18T13:22:30.286Z,4.00
2023-07-18T13:24:57.268Z,4.00
2023-07-18T13:27:24.120Z,4.00
2023-07-18T13:29:50.958Z,4.30
2023-07-18T13:32:17.795Z,4.40
2023-07-18T13:34:44.644Z,4.50
2023-07-18T13:37:11.890Z,3.70
2023-07-18T13:39:38.743Z,4.30
2023-07-18T13:42:05.991Z,4.30
2023-07-18T13:44:33.445Z,3.60
2023-07-18T13:47:00.554Z,3.60
2023-07-18T13:49:48.995Z,4.10
2023-07-18T13:52:14.451Z,3.80
2023-07-18T13:54:41.736Z,4.20
2023-07-18T13:57:08.568Z,4.30
2023-07-18T13:59:36.012Z,4.20
2023-07-18T14:02:03.368Z,4.00
2023-07-18T14:04:30.569Z,3.70
2023-07-18T14:06:57.562Z,3.90
2023-07-18T14:09:24.603Z,3.90
2023-07-18T14:11:51.452Z,3.90
2023-07-18T14:14:18.901Z,3.80
2023-07-18T14:16:45.771Z,3.60
2023-07-18T14:19:12.531Z,4.60
2023-07-18T14:21:40.045Z,4.00
2023-07-18T14:24:07.091Z,3.90
2023-07-18T14:26:33.938Z,4.00
2023-07-18T14:29:02.007Z,4.00
2023-07-18T14:31:28.923Z,4.20
2023-07-18T14:34:05.709Z,4.20
2023-07-18T14:36:34.459Z,3.80
2023-07-18T14:39:01.461Z,4.30
2023-07-18T14:41:28.341Z,4.40
2023-07-18T14:43:55.152Z,4.40
2023-07-18T14:46:23.939Z,3.80
2023-07-18T14:48:51.240Z,4.70
2023-07-18T14:51:18.159Z,4.40
2023-07-18T14:53:45.380Z,5.00
2023-07-18T14:56:12.224Z,4.50
2023-07-18T14:58:39.070Z,4.10
2023-07-18T15:01:07.837Z,4.20
2023-07-18T15:03:35.700Z,4.20
2023-07-18T15:06:06.217Z,3.90
2023-07-18T15:08:34.425Z,4.20
2023-07-18T15:11:01.494Z,4.20
2023-07-18T15:13:28.334Z,4.10
2023-07-18T15:15:55.241Z,4.50
2023-07-18T15:18:22.341Z,4.30
2023-07-18T15:20:49.253Z,4.50
2023-07-18T15:23:16.564Z,4.50
2023-07-18T15:25:43.770Z,4.00
2023-07-18T15:28:14.710Z,4.60
2023-07-18T15:30:42.158Z,4.30
2023-07-18T15:33:24.253Z,4.90
2023-07-18T15:35:54.066Z,4.50
2023-07-18T15:38:20.927Z,4.30
2023-07-18T15:40:48.173Z,4.10
2023-07-18T15:43:15.044Z,4.70
2023-07-18T15:45:41.903Z,4.80
2023-07-18T15:48:08.680Z,4.20
2023-07-18T15:50:35.733Z,4.30
2023-07-18T15:53:02.997Z,4.30
2023-07-18T15:55:29.835Z,4.30
2023-07-18T15:57:56.682Z,4.90
2023-07-18T16:00:23.701Z,4.40
2023-07-18T16:02:50.615Z,4.40
2023-07-18T16:05:17.955Z,4.10
2023-07-18T16:07:44.884Z,4.90
2023-07-18T16:10:11.703Z,4.30
2023-07-18T16:12:38.549Z,5.10
2023-07-18T16:15:06.018Z,4.30
2023-07-18T16:17:32.880Z,4.10
2023-07-18T16:19:59.891Z,4.20
2023-07-18T16:22:26.766Z,5.40
2023-07-18T16:24:53.795Z,4.40
2023-07-18T16:27:20.651Z,4.70
2023-07-18T16:29:47.470Z,4.50
2023-07-18T16:32:14.363Z,4.70
2023-07-18T16:34:41.365Z,4.60
2023-07-18T16:37:09.229Z,4.80
2023-07-18T16:39:36.471Z,4.70
2023-07-18T16:42:21.766Z,4.80
2023-07-18T16:44:50.244Z,4.30
2023-07-18T16:47:17.320Z,4.40
2023-07-18T16:49:44.534Z,4.30
2023-07-18T16:52:11.389Z,4.40
2023-07-18T16:54:38.232Z,4.50
2023-07-18T16:57:05.028Z,4.20
2023-07-18T16:59:32.523Z,4.60
2023-07-18T17:01:59.773Z,5.30
2023-07-18T17:04:27.083Z,4.50
2023-07-18T17:06:55.105Z,4.90
2023-07-18T17:09:23.111Z,4.80
2023-07-18T17:11:50.627Z,4.40
2023-07-18T17:14:18.491Z,4.50
2023-07-18T17:16:45.973Z,4.60
2023-07-18T17:19:14.025Z,4.50
2023-07-18T17:21:41.282Z,5.00
2023-07-18T17:24:09.355Z,4.60
2023-07-18T17:26:36.801Z,4.70
2023-07-18T17:29:04.058Z,4.80
2023-07-18T17:31:32.056Z,4.70
2023-07-18T17:34:02.037Z,4.10
2023-07-18T17:36:29.932Z,4.80
2023-07-18T17:38:57.366Z,4.80
2023-07-18T17:41:24.640Z,5.10
2023-07-18T17:43:51.887Z,5.40
2023-07-18T17:46:19.155Z,4.60
2023-07-18T17:48:46.169Z,4.50
2023-07-18T17:51:13.831Z,4.70
2023-07-18T17:53:41.695Z,4.50
2023-07-18T17:56:09.363Z,4.50
2023-07-18T17:58:36.474Z,4.50
2023-07-18T18:01:03.452Z,5.20
2023-07-18T18:03:31.017Z,5.00
2023-07-18T18:06:03.504Z,5.30
2023-07-18T18:08:31.356Z,3.90
2023-07-18T18:10:58.972Z,3.50
2023-07-18T18:13:27.905Z,2.90
2023-07-18T18:16:07.284Z,3.40
2023-07-18T18:18:36.009Z,2.30
2023-07-18T18:21:04.871Z,2.40
2023-07-18T18:26:08.914Z,2.20
2023-07-18T18:28:35.998Z,2.00
2023-07-18T18:31:04.780Z,2.30
2023-07-18T18:33:37.127Z,2.20
2023-07-18T18:36:05.132Z,2.40
2023-07-18T18:38:33.412Z,2.50
2023-07-18T18:41:02.109Z,2.80
2023-07-18T18:43:30.195Z,2.50
2023-07-18T18:45:57.994Z,2.40
2023-07-18T18:48:27.115Z,2.20
2023-07-18T18:50:56.306Z,2.10
2023-07-18T18:53:24.085Z,2.10
2023-07-18T18:55:54.716Z,2.20
2023-07-18T18:58:24.337Z,2.40
2023-07-18T19:00:55.937Z,2.00
2023-07-18T19:03:24.464Z,2.00
2023-07-18T19:05:54.101Z,2.50
2023-07-18T19:08:23.940Z,2.30
2023-07-18T19:11:05.064Z,2.20
2023-07-18T19:13:33.846Z,1.90
2023-07-18T19:16:01.306Z,2.10
2023-07-18T19:18:28.156Z,2.20
2023-07-18T19:20:56.221Z,2.00
2023-07-18T19:23:23.878Z,2.10
2023-07-18T19:25:51.756Z,2.30
2023-07-18T19:28:19.817Z,2.10
2023-07-18T19:30:47.485Z,1.80
2023-07-18T19:33:14.737Z,2.00
2023-07-18T19:35:42.189Z,1.60
2023-07-18T19:38:09.647Z,1.70
2023-07-18T19:40:38.742Z,2.20
2023-07-18T19:43:06.822Z,1.70
2023-07-18T19:45:34.740Z,1.80
2023-07-18T19:48:02.588Z,1.90
2023-07-18T19:50:29.800Z,1.70
2023-07-18T19:52:58.076Z,2.20
2023-07-18T19:55:25.949Z,1.70
2023-07-18T19:57:53.617Z,1.40
2023-07-18T20:00:21.282Z,2.10
2023-07-18T20:02:49.263Z,1.70
2023-07-18T20:05:17.001Z,2.40
2023-07-18T20:07:44.048Z,1.90
2023-07-18T20:10:11.303Z,1.70
2023-07-18T20:12:38.550Z,1.60
2023-07-18T20:15:06.218Z,1.80
2023-07-18T20:17:33.017Z,1.90
2023-07-18T20:20:01.070Z,1.50
2023-07-18T20:22:27.924Z,1.90
2023-07-18T20:24:54.676Z,1.50
2023-07-18T20:27:22.273Z,2.20
2023-07-18T20:29:49.536Z,2.50
2023-07-18T20:32:16.760Z,2.10
2023-07-18T20:34:46.729Z,1.60
2023-07-18T20:37:13.538Z,1.70
2023-07-18T20:39:40.994Z,2.00
2023-07-18T20:42:09.065Z,1.80
2023-07-18T20:44:36.483Z,1.80
2023-07-18T20:47:04.222Z,1.80
2023-07-18T20:49:32.086Z,3.10
2023-07-18T20:51:59.504Z,1.60
2023-07-18T20:54:27.995Z,1.80
2023-07-18T20:56:56.473Z,2.30
2023-07-18T20:59:23.846Z,1.40
2023-07-18T21:01:50.809Z,1.30
2023-07-18T21:04:17.929Z,1.80
2023-07-18T21:06:46.122Z,1.50
2023-07-18T21:09:13.753Z,2.30
2023-07-18T21:11:40.802Z,1.60
2023-07-18T21:14:08.667Z,1.90
2023-07-18T21:16:35.554Z,1.70
2023-07-18T21:19:02.352Z,1.80
2023-07-18T21:21:29.610Z,1.70
2023-07-18T21:23:57.617Z,1.90
2023-07-18T21:26:26.362Z,2.20
2023-07-18T21:29:03.719Z,1.50
2023-07-18T21:31:32.697Z,1.90
2023-07-18T21:33:59.585Z,1.90
2023-07-18T21:36:26.438Z,1.50
2023-07-18T21:38:53.270Z,1.70
2023-07-18T21:41:22.398Z,1.30
2023-07-18T21:43:49.623Z,2.10
2023-07-18T21:46:16.974Z,2.40
2023-07-18T21:48:44.357Z,1.50
2023-07-18T21:51:10.959Z,1.30
2023-07-18T21:53:37.809Z,1.40
2023-07-18T21:56:04.856Z,1.30
2023-07-18T21:58:31.700Z,1.80
2023-07-18T22:00:58.599Z,1.10
2023-07-18T22:03:25.956Z,1.80
2023-07-18T22:05:52.844Z,1.20
2023-07-18T22:08:19.687Z,1.40
2023-07-18T22:10:46.544Z,1.10
2023-07-18T22:13:15.252Z,1.20
2023-07-18T22:15:42.878Z,1.50
2023-07-18T22:18:25.718Z,1.10
2023-07-18T22:20:54.378Z,1.20
2023-07-18T22:23:21.243Z,1.20
2023-07-18T22:25:59.574Z,1.40
2023-07-18T22:28:31.313Z,1.10
2023-07-18T22:30:58.624Z,1.20
2023-07-18T22:33:25.589Z,1.10
2023-07-18T22:35:52.434Z,1.30
2023-07-18T22:38:19.278Z,1.10
2023-07-18T22:40:46.118Z,1.30
2023-07-18T22:43:12.968Z,1.00
2023-07-18T22:45:40.006Z,1.20
2023-07-18T22:48:07.084Z,0.80
2023-07-18T22:50:34.008Z,1.00
2023-07-18T22:53:01.817Z,1.10
2023-07-18T22:55:30.266Z,0.80
2023-07-18T22:57:57.087Z,1.00
2023-07-18T23:00:23.932Z,1.90
2023-07-18T23:02:51.087Z,1.40
2023-07-18T23:05:18.228Z,1.20
2023-07-18T23:07:45.494Z,0.90
2023-07-18T23:10:12.328Z,1.00
2023-07-18T23:12:39.168Z,0.90
2023-07-18T23:15:06.219Z,0.90
2023-07-18T23:17:33.101Z,0.80
2023-07-18T23:20:00.136Z,0.70
2023-07-18T23:22:27.169Z,0.90
2023-07-18T23:24:53.995Z,0.90
2023-07-18T23:27:20.781Z,0.80
2023-07-18T23:29:47.680Z,0.70
2023-07-18T23:32:14.541Z,0.90
2023-07-18T23:34:41.364Z,0.70
2023-07-18T23:37:08.219Z,1.00
2023-07-18T23:39:35.461Z,1.00
2023-07-18T23:42:02.311Z,1.00
2023-07-18T23:44:29.146Z,0.70
2023-07-18T23:46:56.023Z,0.70
2023-07-18T23:49:22.838Z,0.70
2023-07-18T23:51:49.674Z,1.00
2023-07-18T23:54:16.516Z,0.80
2023-07-18T23:56:43.364Z,0.90
2023-07-18T23:59:10.205Z,1.20
